Hlavní strana
METAR-TAF:

METAR-TAF

Letiště :

Gabès, Tunisko

zeměpisná šířka: 33-53N, zeměpisná délka: 010-06E, výška: 4 m

Aktuální stav počasí

Zpráva byla vytvořena před 1 hodinou a 8 minutami, v 02:00 UTC
Bezvětří
Teplota 10°C
Vlhkost vzduchu 93%
Tlak 1025 hPa
Viditelnost: 8000 m
Skoro jasno ve výšce 3000 ft

METAR: DTTG 200200Z 00000KT 8000 FEW030 10/09 Q1025 NOSIG

Čas: 04:08 (03:08 UTC)

Předpověď počasí

Zpráva byla vytvořena před 3 hodinami a 8 minutami, v 00:00 UTC
Předpověď platná od 20 v 01 UTC do 20 v 10 UTC
Západní vítr 5 kt
Viditelnost 10 km a více
Skoro jasno ve výšce 3000 ft
Pravděpodobnost 30% :
Dočasný
od 20 v 05 UTC do 20 v 08 UTC
Viditelnost: 4000 m
Skoro jasno ve výšce 1400 ft
kouřmo

TAF: DTTG 200000Z 2001/2010 26005KT 9999 FEW030 PROB30 TEMPO 2005/2008 4000 BR FEW014

Stav a předpovědi počasí z více než 4 000 letišť (zprávy METAR a TAF).

Červené a žluté tečky na mapě představují dostupné meteorologické stanice.

Když kurzor umístíte na tečku, zobrazí se název stanice.

Pak kliknutím zobrazíte stav a předpověď počasí.

Chcete-li změnit mapu, kliknutím na zelené tlačítko se znaménkem +mapu přiblížíte, kliknutím na zelené tlačítko se znaménkem – mapu oddálíte a kliknutím na zelené šipky přejdete na sousední mapy.


METAR-TAF: